createdAt,value
2023-05-05T00:03:03.797Z,8.3
2023-05-05T00:08:13.913Z,8.3
2023-05-05T00:14:03.627Z,8.4
2023-05-05T00:19:03.643Z,8.3
2023-05-05T00:24:13.899Z,8
2023-05-05T00:29:13.919Z,8.1
2023-05-05T00:35:03.682Z,7.9
2023-05-05T00:40:13.929Z,7.5
2023-05-05T00:46:03.639Z,7.4
2023-05-05T00:51:03.660Z,7.5
2023-05-05T00:56:13.917Z,7.6
2023-05-05T01:01:13.959Z,7.3
2023-05-05T01:06:13.923Z,7
2023-05-05T01:11:13.966Z,6.9
2023-05-05T01:16:14.025Z,7
2023-05-05T01:22:03.658Z,7.3
2023-05-05T01:27:03.655Z,7.4
2023-05-05T01:32:13.947Z,7.1
2023-05-05T01:37:13.952Z,6.9
2023-05-05T01:43:03.668Z,7.2
2023-05-05T01:48:03.753Z,6.9
2023-05-05T01:53:03.688Z,6.8
2023-05-05T01:58:13.950Z,6.4
2023-05-05T02:04:03.665Z,6.4
2023-05-05T02:09:03.808Z,6.6
2023-05-05T02:14:13.966Z,6.3
2023-05-05T02:20:03.672Z,6.4
2023-05-05T02:25:03.688Z,6.4
2023-05-05T02:30:03.816Z,6.5
2023-05-05T02:35:13.971Z,6.6
2023-05-05T02:41:03.659Z,6.5
2023-05-05T02:46:03.701Z,6.1
2023-05-05T02:51:03.673Z,5.5
2023-05-05T02:56:13.995Z,5.3
2023-05-05T03:02:03.679Z,5.2
2023-05-05T03:07:03.664Z,4.6
2023-05-05T03:12:13.955Z,4.7
2023-05-05T03:18:03.786Z,4.3
2023-05-05T03:23:13.963Z,4.4
2023-05-05T03:28:13.959Z,4.2
2023-05-05T03:34:03.694Z,3.4
2023-05-05T03:39:03.751Z,3
2023-05-05T03:44:13.928Z,3
2023-05-05T03:49:13.968Z,2.7
2023-05-05T03:55:03.684Z,2
2023-05-05T04:00:13.979Z,2
2023-05-05T04:06:03.671Z,1.2
2023-05-05T04:11:03.703Z,1
2023-05-05T04:16:14.020Z,1.4
2023-05-05T04:21:13.962Z,1.3
2023-05-05T04:26:13.963Z,1.2
2023-05-05T04:31:14.025Z,1.4
2023-05-05T04:37:03.678Z,1.1
2023-05-05T04:42:03.714Z,1.1
2023-05-05T04:47:14.825Z,1
2023-05-05T04:52:13.968Z,0.7
2023-05-05T04:57:13.980Z,0.6
2023-05-05T05:02:14.098Z,0.7
2023-05-05T05:07:13.983Z,0.8
2023-05-05T05:12:14.009Z,0.9
2023-05-05T05:18:03.730Z,0.8
2023-05-05T05:23:03.714Z,0.7
2023-05-05T05:28:10.030Z,0.7
2023-05-05T05:33:13.999Z,0.9
2023-05-05T05:39:03.704Z,1.8
2023-05-05T05:44:03.692Z,2.6
2023-05-05T05:49:03.691Z,2.3
2023-05-05T05:54:03.701Z,2.5
2023-05-05T05:59:13.965Z,2.1
2023-05-05T06:04:14.048Z,1.8
2023-05-05T06:10:18.559Z,0.4
2023-05-05T06:15:13.994Z,2
2023-05-05T06:20:14.025Z,3.2
2023-05-05T06:26:03.698Z,4
2023-05-05T06:31:03.840Z,4.2
2023-05-05T06:42:03.708Z,5.5
2023-05-05T06:47:03.863Z,5.4
2023-05-05T06:52:14.021Z,5.1
2023-05-05T06:58:03.739Z,6.3
2023-05-05T07:03:03.823Z,7
2023-05-05T07:08:03.764Z,6.7
2023-05-05T07:13:14.049Z,8.2
2023-05-05T07:18:14.040Z,8.8
2023-05-05T07:23:14.098Z,9.5
2023-05-05T07:29:03.716Z,10.1
2023-05-05T07:34:03.816Z,10.4
2023-05-05T07:39:14.059Z,11.3
2023-05-05T07:45:03.734Z,10.9
2023-05-05T07:50:03.749Z,11.2
2023-05-05T07:55:03.748Z,11.8
2023-05-05T08:00:14.039Z,12.3
2023-05-05T08:06:03.768Z,12.1
2023-05-05T08:11:14.026Z,11.8
2023-05-05T08:16:14.061Z,12
2023-05-05T08:21:14.043Z,12.1
2023-05-05T08:27:03.752Z,12.4
2023-05-05T08:32:14.058Z,12.5
2023-05-05T08:37:14.053Z,13.1
2023-05-05T08:43:03.771Z,13.1
2023-05-05T08:48:03.838Z,13.7
2023-05-05T08:53:03.869Z,14.6
2023-05-05T08:58:14.059Z,15.2
2023-05-05T09:04:03.774Z,15.8
2023-05-05T09:09:03.782Z,15.3
2023-05-05T09:14:03.776Z,15.4
2023-05-05T09:19:03.786Z,16.2
2023-05-05T09:24:14.061Z,15.7
2023-05-05T09:30:03.774Z,16
2023-05-05T09:35:14.045Z,16.5
2023-05-05T09:41:03.789Z,17.1
2023-05-05T09:46:14.060Z,17.4
2023-05-05T09:52:14.065Z,17.9
2023-05-05T09:57:14.089Z,17.8
2023-05-05T10:03:03.893Z,17.8
2023-05-05T10:08:14.093Z,19.1
2023-05-05T10:14:03.812Z,18.9
2023-05-05T10:19:14.082Z,19.1
2023-05-05T10:25:03.821Z,18
2023-05-05T10:30:14.072Z,15.8
2023-05-05T10:35:14.084Z,14.9
2023-05-05T10:41:03.819Z,15
2023-05-05T10:46:03.854Z,13.9
2023-05-05T10:51:18.824Z,14.5
2023-05-05T10:57:03.805Z,14.1
2023-05-05T11:02:03.836Z,13.9
2023-05-05T11:07:15.049Z,14.1
2023-05-05T11:13:03.860Z,14
2023-05-05T11:18:07.011Z,13.3
2023-05-05T11:23:16.559Z,13.2
2023-05-05T11:28:14.138Z,12.3
2023-05-05T11:33:14.117Z,11.4
2023-05-05T11:39:03.824Z,9.7
2023-05-05T11:44:03.838Z,8.4
2023-05-05T11:49:03.861Z,7.7
2023-05-05T11:54:14.118Z,8.1
2023-05-05T12:00:03.848Z,10.3
2023-05-05T12:05:03.835Z,10.1
2023-05-05T12:10:14.132Z,9.8
2023-05-05T12:16:03.863Z,8.6
2023-05-05T12:21:14.126Z,6.8
2023-05-05T12:27:03.841Z,5.4
2023-05-05T12:32:03.896Z,5.3
2023-05-05T12:37:14.136Z,3.6
2023-05-05T12:43:03.829Z,3.9
2023-05-05T12:48:14.127Z,3.5
2023-05-05T12:54:03.839Z,4.1
2023-05-05T12:59:03.857Z,4.5
2023-05-05T13:04:14.127Z,5.4
2023-05-05T13:09:14.148Z,4.4
2023-05-05T13:14:14.162Z,5
2023-05-05T13:20:03.867Z,5.6
2023-05-05T13:25:03.885Z,5.5
2023-05-05T13:30:14.154Z,6.1
2023-05-05T13:41:14.137Z,6.1
2023-05-05T13:46:20.159Z,6.6
2023-05-05T13:52:03.913Z,6.5
2023-05-05T13:57:14.137Z,7.4
2023-05-05T14:02:14.172Z,6.8
2023-05-05T14:07:14.170Z,6.9
2023-05-05T14:13:03.937Z,7.2
2023-05-05T14:18:03.926Z,7.3
2023-05-05T14:23:03.906Z,7.2
2023-05-05T14:28:14.175Z,8
2023-05-05T14:34:03.887Z,8.1
2023-05-05T14:39:03.903Z,7.5
2023-05-05T14:44:14.168Z,9.5
2023-05-05T14:50:03.917Z,8.4
2023-05-05T14:55:03.922Z,8
2023-05-05T15:00:03.952Z,8.9
2023-05-05T15:05:14.171Z,8.5
2023-05-05T15:11:03.903Z,8.8
2023-05-05T15:16:14.208Z,8.4
2023-05-05T15:22:03.891Z,9.2
2023-05-05T15:27:14.193Z,8.7
2023-05-05T15:38:03.881Z,7.8
2023-05-05T15:43:03.908Z,5.9
2023-05-05T15:48:03.933Z,5.5
2023-05-05T15:53:03.950Z,4.7
2023-05-05T15:58:14.219Z,5.5
2023-05-05T16:04:03.880Z,6
2023-05-05T16:09:03.953Z,4.3
2023-05-05T16:14:14.187Z,2.3
2023-05-05T16:20:03.899Z,1.8
2023-05-05T16:25:14.208Z,1.4
2023-05-05T16:31:03.920Z,0.9
2023-05-05T16:36:03.922Z,0
2023-05-05T16:41:14.248Z,0
2023-05-05T16:46:14.225Z,0
2023-05-05T16:52:03.894Z,0
2023-05-05T16:57:14.223Z,0
2023-05-05T17:02:14.260Z,0
2023-05-05T17:08:03.903Z,0
2023-05-05T17:13:04.009Z,0
2023-05-05T17:18:14.221Z,0
2023-05-05T17:23:14.221Z,0
2023-05-05T17:29:03.935Z,0
2023-05-05T17:34:14.215Z,0
2023-05-05T17:39:14.199Z,0
2023-05-05T17:45:03.915Z,0
2023-05-05T17:50:14.192Z,0
2023-05-05T17:55:14.237Z,0
2023-05-05T18:01:03.992Z,0
2023-05-05T18:06:14.206Z,0
2023-05-05T18:17:03.936Z,0
2023-05-05T18:22:14.234Z,0
2023-05-05T18:28:03.921Z,0
2023-05-05T18:33:03.984Z,0
2023-05-05T18:38:14.241Z,0
2023-05-05T18:43:14.253Z,0
2023-05-05T18:49:04.248Z,0
2023-05-05T18:54:04.031Z,0
2023-05-05T18:59:14.281Z,0
2023-05-05T19:04:29.478Z,0
2023-05-05T19:10:03.970Z,0
2023-05-05T19:15:03.953Z,0
2023-05-05T19:20:03.957Z,0
2023-05-05T19:25:14.283Z,0
2023-05-05T19:31:03.945Z,0
2023-05-05T19:36:14.267Z,0
2023-05-05T19:41:14.248Z,0
2023-05-05T19:47:03.959Z,0
2023-05-05T19:52:03.967Z,0
2023-05-05T19:57:14.239Z,0
2023-05-05T20:02:14.290Z,0
2023-05-05T20:07:14.262Z,0
2023-05-05T20:13:04.188Z,0
2023-05-05T20:18:14.247Z,0
2023-05-05T20:24:03.959Z,0
2023-05-05T20:29:04.002Z,0
2023-05-05T20:34:14.265Z,0
2023-05-05T20:39:14.260Z,0
2023-05-05T20:45:03.973Z,0
2023-05-05T20:50:03.967Z,0
2023-05-05T20:55:03.969Z,0
2023-05-05T21:00:03.983Z,0
2023-05-05T21:05:14.321Z,0
2023-05-05T21:10:14.265Z,0
2023-05-05T21:16:03.971Z,0
2023-05-05T21:21:03.998Z,0
2023-05-05T21:26:14.256Z,0
2023-05-05T21:32:04.065Z,0
2023-05-05T21:37:14.276Z,0
2023-05-05T21:42:14.282Z,0
2023-05-05T21:47:14.308Z,0
2023-05-05T21:53:03.981Z,0
2023-05-05T21:58:14.362Z,0
2023-05-05T22:04:04.122Z,0
2023-05-05T22:09:03.993Z,0
2023-05-05T22:14:14.252Z,0
2023-05-05T22:19:14.271Z,0
2023-05-05T22:25:04.008Z,0
2023-05-05T22:30:14.239Z,0
2023-05-05T22:35:14.304Z,0
2023-05-05T22:41:03.983Z,0
2023-05-05T22:46:14.277Z,0
2023-05-05T22:52:03.965Z,0
2023-05-05T22:57:03.983Z,0
2023-05-05T23:02:04.032Z,0
2023-05-05T23:07:14.279Z,0
2023-05-05T23:13:03.986Z,0
2023-05-05T23:18:14.297Z,0
2023-05-05T23:24:03.958Z,0
2023-05-05T23:29:03.983Z,0
2023-05-05T23:34:14.289Z,0
2023-05-05T23:40:03.996Z,0
2023-05-05T23:45:04.007Z,0
2023-05-05T23:50:04.029Z,0
2023-05-05T23:55:14.252Z,0
